MA55 weather

Muskeget Island Airport
Muskeget Island, Massachusetts, United States

Public forecast

Using degrees Fahrenheit for public forecast. Weather courtesy of forecast.io.

Closest aviation weather report (METAR) to Muskeget Island Airport

Closest report is Nantucket Memorial Airport, 11.9 nm (22.0 km) ESE. Retrieved 2020/08/06 12:53 UTC (10 minutes ago):

KACK 061253Z 05010KT 10SM FEW055 26/13 A3012 RMK AO2 SLP198 T02560133

Closest aviation forecast (TAF) to Muskeget Island Airport

Closest forecast is Nantucket Memorial Airport, 11.9 nm (22.0 km) ESE. Retrieved 2020/08/06 12:22 UTC (41 minutes ago):

TAF KACK 061120Z 0612/0712 10006KT P6SM SCT200 FM062300 19003KT P6SM BKN100 FM070600 00000KT P6SM VCSH BKN060 FM070900 08004KT 6SM -SHRA BR OVC035